Ana Sayfa
METAR-TAF:

METAR-TAF

Havaalanları :

Miri, Malezya

Enlem: 04-20N, Boylam: 113-59E, yükseklik: 17 m

Güncel hava durumu gözlemi

Rapor saat 19:00 UTC de 1 saat ve 11 dakika önce yapıldı.
Rüzgar değişken yönden 1 kt
Sıcaklık 26°C
Nem 94%
Basınç 1009 hPa
Görüş mesafesi 10 km veya daha fazla
1600 ft yükseklikte parçalı bulutlu
15000 ft yükseklikte parçalı çok bulutlu

METAR: WBGR 241900Z VRB01KT 9999 SCT016 BKN150 26/25 Q1009

Saat: 04:11 (20:11 UTC)

Tahmin

Rapor saat 17:00 UTC de 3 saat ve 11 dakika önce yapıldı.
Ayın 24'si saat 18 UTC'den ayın 25'si saat 18 UTC'ye kadar geçerli Tahmin
Rüzgar kuzeydoğudan 7 kt
Görüş mesafesi 10 km veya daha fazla
1600 ft yükseklikte az bulutlu

TAF: WBGR 241700Z 2418/2518 05007KT 9999 FEW016

4.000'den fazla havaalanı için hava durumu gözlemleri ve tahminleri (METAR ve TAF raporları).

Kullanılabilir istasyonlar harita üzerinde sarı ve kırmızı noktalarla gösterilir.

İstasyonun adını görmek için fareyi noktanın üzerinde gezdirin.

Sonrasında hava gözlem ve tahminlerini görmek için tıklayın.

Haritayı değiştirmek için: yaklaştırmak için siyah artı işaretli yeşil düğmeye ve uzaklaştırmak için de eksi işaretli düğmeye hızla tıklayın; bitişik haritalar için yeşil okları kullanın.


METAR-TAF: